Private Wetterstation Grnau im Almtal
www.gruenau.tv

Wetterdaten: aktuell Donnerstag, 13.08.2020 20:10
Datum Zeit Temperatur Temp. min Temp. max Luftfeuchte Luftdruck Regen Wind Richtung Richtung Sonne ET UV Solar Taupunkt Windchill Windben
13.08.2020 20:10 18,0 C 18,0 C 18,1 C 76 % 1015,5 hPa 3,2 l/m 2,2 km/h (1 Bft) O-SO 113 0 min 0,000 mm 0,0 UV-I 0 W/m 13,7 C 18,0 C 4,8 km/h (1 Bft)
13.08.2020 19:10 18,3 C 18,3 C 18,3 C 78 % 1015,0 hPa 1,2 l/m 3,4 km/h (1 Bft) O-SO 120 0 min 0,025 mm 0,0 UV-I 0 W/m 14,4 C 18,3 C 6,4 km/h (2 Bft)
13.08.2020 18:15 18,5 C 18,5 C 18,6 C 77 % 1014,4 hPa 2,2 l/m 5,0 km/h (1 Bft) O-SO 119 0 min 0,026 mm 0,0 UV-I 7 W/m 14,4 C 18,5 C 11,3 km/h (2 Bft)
13.08.2020 17:20 18,5 C 18,5 C 18,6 C 78 % 1014,5 hPa 18,0 l/m 5,5 km/h (1 Bft) O 89 0 min 0,025 mm 0,0 UV-I 5 W/m 14,6 C 18,5 C 11,3 km/h (2 Bft)
13.08.2020 16:25 18,9 C 18,9 C 19,2 C 81 % 1014,5 hPa 16,0 l/m 5,1 km/h (1 Bft) N 354 0 min 0,076 mm 0,0 UV-I 0 W/m 15,6 C 18,9 C 17,7 km/h (3 Bft)
13.08.2020 15:30 26,4 C 26,4 C 26,8 C 69 % 1011,3 hPa 0,0 l/m 3,1 km/h (1 Bft) SW 214 0 min 0,203 mm 0,0 UV-I 35 W/m 20,2 C 26,4 C 8,0 km/h (2 Bft)
13.08.2020 14:35 27,8 C 27,8 C 27,9 C 62 % 1011,1 hPa 0,0 l/m 7,0 km/h (2 Bft) NW 326 5 min 0,305 mm 3,1 UV-I 257 W/m 19,8 C 27,7 C 14,5 km/h (3 Bft)
13.08.2020 13:40 27,4 C 27,3 C 27,4 C 63 % 1011,6 hPa 0,0 l/m 6,1 km/h (2 Bft) N 5 30 min 0,508 mm 4,2 UV-I 278 W/m 19,7 C 27,4 C 11,3 km/h (2 Bft)
13.08.2020 12:45 28,1 C 28,1 C 28,2 C 61 % 1011,9 hPa 0,0 l/m 9,5 km/h (2 Bft) N 5 50 min 0,534 mm 7,5 UV-I 816 W/m 19,9 C 27,7 C 16,1 km/h (3 Bft)
13.08.2020 11:50 27,2 C 27,1 C 27,2 C 63 % 1012,0 hPa 0,0 l/m 11,2 km/h (2 Bft) NW 322 60 min 0,406 mm 6,8 UV-I 793 W/m 19,5 C 26,4 C 20,9 km/h (4 Bft)
13.08.2020 10:55 25,4 C 25,3 C 25,4 C 70 % 1012,3 hPa 0,0 l/m 6,5 km/h (2 Bft) NW 315 60 min 0,305 mm 5,3 UV-I 684 W/m 19,5 C 25,4 C 11,3 km/h (2 Bft)
13.08.2020 10:00 23,3 C 23,2 C 23,3 C 73 % 1012,7 hPa 0,0 l/m 1,9 km/h (1 Bft) N 6 60 min 0,305 mm 3,6 UV-I 555 W/m 18,2 C 23,3 C 4,8 km/h (1 Bft)
13.08.2020 09:05 21,0 C 20,7 C 21,0 C 79 % 1013,0 hPa 0,0 l/m 3,2 km/h (1 Bft) SO 130 60 min 0,203 mm 2,1 UV-I 439 W/m 17,2 C 21,0 C 6,4 km/h (2 Bft)
13.08.2020 08:10 18,4 C 18,1 C 18,4 C 82 % 1013,2 hPa 0,0 l/m 4,9 km/h (1 Bft) SO 125 25 min 0,076 mm 0,9 UV-I 292 W/m 15,3 C 18,4 C 8,0 km/h (2 Bft)
13.08.2020 07:15 16,9 C 16,9 C 16,9 C 82 % 1013,3 hPa 0,0 l/m 8,1 km/h (2 Bft) SO 137 0 min 0,026 mm 0,0 UV-I 46 W/m 13,8 C 16,0 C 14,5 km/h (3 Bft)
13.08.2020 06:20 16,7 C 16,7 C 16,7 C 82 % 1013,0 hPa 0,0 l/m 4,8 km/h (1 Bft) S-SO 165 0 min 0,025 mm 0,0 UV-I 16 W/m 13,6 C 16,7 C 12,9 km/h (3 Bft)
13.08.2020 05:25 17,0 C 17,0 C 17,0 C 82 % 1013,0 hPa 0,0 l/m 7,3 km/h (2 Bft) O-SO 107 0 min 0,025 mm 0,0 UV-I 0 W/m 13,9 C 16,5 C 14,5 km/h (3 Bft)
13.08.2020 04:30 17,3 C 17,3 C 17,3 C 82 % 1013,2 hPa 0,0 l/m 7,7 km/h (2 Bft) O 85 0 min 0,026 mm 0,0 UV-I 0 W/m 14,2 C 16,7 C 14,5 km/h (3 Bft)
13.08.2020 03:35 17,8 C 17,7 C 17,8 C 82 % 1013,3 hPa 0,0 l/m 8,5 km/h (2 Bft) S-SO 164 0 min 0,025 mm 0,0 UV-I 0 W/m 14,7 C 16,8 C 14,5 km/h (3 Bft)
13.08.2020 02:40 18,2 C 18,2 C 18,3 C 82 % 1013,6 hPa 0,0 l/m 7,6 km/h (2 Bft) SO 137 0 min 0,026 mm 0,0 UV-I 0 W/m 15,1 C 17,6 C 16,1 km/h (3 Bft)
13.08.2020 01:45 18,8 C 18,8 C 18,9 C 82 % 1013,5 hPa 0,0 l/m 6,1 km/h (2 Bft) O-SO 117 0 min 0,025 mm 0,0 UV-I 0 W/m 15,7 C 18,8 C 14,5 km/h (3 Bft)
13.08.2020 00:50 19,5 C 19,5 C 19,6 C 82 % 1014,1 hPa 0,0 l/m 5,2 km/h (1 Bft) SO 126 0 min 0,000 mm 0,0 UV-I 0 W/m 16,3 C 19,5 C 14,5 km/h (3 Bft)
12.08.2020 23:55 20,1 C 20,1 C 20,2 C 82 % 1014,1 hPa 0,0 l/m 4,2 km/h (1 Bft) O-SO 110 0 min 0,000 mm 0,0 UV-I 0 W/m 16,9 C 20,1 C 8,0 km/h (2 Bft)
12.08.2020 23:00 20,9 C 20,9 C 21,0 C 82 % 1014,1 hPa 0,0 l/m 4,0 km/h (1 Bft) S-SO 147 0 min 0,000 mm 0,0 UV-I 0 W/m 17,7 C 20,9 C 6,4 km/h (2 Bft)
12.08.2020 22:05 21,8 C 21,8 C 21,8 C 82 % 1014,1 hPa 0,0 l/m 1,5 km/h (1 Bft) O-SO 104 0 min 0,000 mm 0,0 UV-I 0 W/m 18,6 C 21,8 C 4,8 km/h (1 Bft)
12.08.2020 21:10 22,4 C 22,4 C 22,6 C 82 % 1013,8 hPa 0,0 l/m 0,0 km/h (0 Bft) NO 45 0 min 0,000 mm 0,0 UV-I 0 W/m 19,2 C 22,4 C 0,0 km/h (0 Bft)
12.08.2020 21:00 22,7 C 22,7 C 22,7 C 81 % 1013,7 hPa 0,0 l/m 0,0 km/h (0 Bft) NO 45 0 min 0,000 mm 0,0 UV-I 0 W/m 19,3 C 22,7 C 0,0 km/h (0 Bft)
_ Min-Zeit 06:15 06:15 06:20 14:40 15:10 - 21:00 - - - - - - 06:15 06:40 21:00
Minimum _ 16,7 C 16,7 C 16,7 C 60 % 1010,7 hPa - 0,0 km/h (0 Bft) - - - - - - 13,6 C 15,7 C 0,0 km/h (0 Bft)
_ Max-Zeit 13:05 13:05 13:05 21:10 19:55 16:15 15:45 - - 07:30 12:00 13:00 13:00 12:40 13:55 15:45
Maximum _ 28,4 C 28,3 C 28,4 C 82 % 1015,9 hPa 4,2 l/m 16,5 km/h
W-SW (3 Bft)
- - 5 min 0,534 mm 7,7 UV-I 919 W/m 20,5 C 28,1 C 30,6 km/h
SO (5 Bft)
Durchschnitt _ 21,1 C 21,1 C 21,2 C 77 % 1013,3 hPa #36,4 l/m 5,1 km/h (1 Bft) O-SO - #5:20 h #2,870 mm 3,8 UV-I 310 W/m 16,8 C 20,9 C 11,1 km/h (2 Bft)
Rauscher Max - www.gruenau.tv